Time;durP1;ratioP1;P1;durP2;ratioP2;P2;SDS_P1;SDS_P2;PMS_P1;PMS_P2;Temp;Humidity;BMP_temperature;BMP_pressure;BME280_temperature;BME280_humidity;BME280_pressure;Samples;Min_cycle;Max_cycle;Signal;HPM_P1;HPM_P2
2022/10/07 00:00:58;;;;;;;11.57;8.35;;;;;;;21.75;44.99;95895.28;5041274;28;20111;-65
2022/10/07 00:03:24;;;;;;;10.75;8.55;;;;;;;22.49;45.32;96012.88;5029440;28;20475;-71
2022/10/07 00:06:03;;;;;;;9.63;7.80;;;;;;;21.75;44.92;95906.16;5045374;28;20400;-65
2022/10/07 00:08:29;;;;;;;9.93;7.38;;;;;;;22.10;44.95;95959.97;5026380;28;20076;-65
2022/10/07 00:10:55;;;;;;;10.38;8.23;;;;;;;22.28;45.28;95986.91;5049395;28;20060;-65
2022/10/07 00:13:22;;;;;;;10.70;7.90;;;;;;;21.76;44.89;95902.97;5036662;28;20089;-65
2022/10/07 00:15:47;;;;;;;11.48;8.30;;;;;;;22.30;45.40;96006.25;5035704;28;20499;-65
2022/10/07 00:18:13;;;;;;;10.40;8.15;;;;;;;21.68;44.96;95895.72;5037960;28;20546;-65
2022/10/07 00:20:38;;;;;;;10.30;8.00;;;;;;;22.12;45.12;95957.53;5048718;28;20482;-65
2022/10/07 00:23:05;;;;;;;10.30;7.97;;;;;;;22.03;44.90;95938.66;5030031;28;20073;-66
2022/10/07 00:25:30;;;;;;;11.25;7.68;;;;;;;21.84;45.23;95919.63;5037868;28;20157;-66
2022/10/07 00:27:56;;;;;;;10.02;7.80;;;;;;;22.22;45.05;95972.50;5038990;28;20025;-66
2022/10/07 00:30:22;;;;;;;10.27;7.78;;;;;;;22.31;45.24;95983.25;5026432;28;20037;-65
2022/10/07 00:32:47;;;;;;;9.40;7.05;;;;;;;22.43;45.13;95995.75;5025715;28;20114;-66
2022/10/07 00:35:13;;;;;;;9.80;7.38;;;;;;;21.81;45.02;95909.69;5029677;28;20025;-65
2022/10/07 00:37:41;;;;;;;10.82;7.70;;;;;;;22.43;45.29;95995.75;5024984;28;20132;-66
2022/10/07 00:40:09;;;;;;;10.45;7.40;;;;;;;22.26;45.01;95978.50;5047844;28;20125;-65
2022/10/07 00:42:35;;;;;;;10.30;7.72;;;;;;;22.41;45.47;95990.78;5041359;28;20121;-65
2022/10/07 00:45:00;;;;;;;9.90;7.35;;;;;;;22.16;44.99;95968.94;5030320;28;20133;-65
2022/10/07 00:47:30;;;;;;;10.95;8.20;;;;;;;22.31;45.47;95980.53;5034287;28;20044;-66
2022/10/07 00:50:01;;;;;;;;;;;;;;;22.41;45.52;95990.03;5059280;28;20037;-65
2022/10/07 00:52:29;;;;;;;9.50;7.32;;;;;;;22.21;45.27;95965.59;5025675;28;20014;-66
2022/10/07 00:54:54;;;;;;;9.70;7.25;;;;;;;21.65;45.35;95874.91;5062856;28;20041;-65
2022/10/07 00:57:21;;;;;;;9.98;7.65;;;;;;;22.19;45.30;95978.13;5025995;28;20412;-65
2022/10/07 00:59:46;;;;;;;10.27;7.28;;;;;;;22.32;45.31;95976.59;5033100;28;20079;-64
2022/10/07 01:02:12;;;;;;;9.85;7.43;;;;;;;22.27;45.37;95969.13;5065554;28;20033;-65
2022/10/07 01:04:37;;;;;;;9.88;7.20;;;;;;;22.37;45.48;95989.50;5037866;28;20083;-65
2022/10/07 01:07:03;;;;;;;9.63;7.70;;;;;;;22.29;45.42;95982.97;5030508;28;20107;-64
2022/10/07 01:09:28;;;;;;;9.82;7.68;;;;;;;22.13;45.06;95953.59;5041481;28;20021;-65
2022/10/07 01:12:22;;;;;;;10.57;8.10;;;;;;;22.11;45.27;95958.03;5025260;28;20153;-64
2022/10/07 01:14:58;;;;;;;10.68;7.70;;;;;;;22.23;45.26;95968.56;5012707;28;20065;-65
2022/10/07 01:18:03;;;;;;;9.45;7.70;;;;;;;22.36;45.50;95982.56;5043802;28;20113;-66
2022/10/07 01:20:36;;;;;;;10.23;7.43;;;;;;;22.36;45.45;95982.56;5050792;28;20045;-64
2022/10/07 01:23:16;;;;;;;8.73;7.22;;;;;;;22.34;45.37;95974.13;5034212;28;20041;-65
2022/10/07 01:26:03;;;;;;;9.30;7.38;;;;;;;22.35;45.41;95983.78;5035134;28;20471;-65
2022/10/07 01:28:49;;;;;;;9.77;7.70;;;;;;;22.34;45.20;95984.28;5024509;28;20092;-67
2022/10/07 01:31:16;;;;;;;8.57;7.07;;;;;;;22.14;45.77;95955.09;5061280;28;20071;-66
2022/10/07 01:33:42;;;;;;;9.90;7.18;;;;;;;21.51;45.06;95864.88;5027536;28;20171;-66
2022/10/07 01:36:14;;;;;;;9.57;6.95;;;;;;;21.66;45.33;95881.88;5043296;28;20044;-65
2022/10/07 01:38:42;;;;;;;9.20;7.43;;;;;;;21.94;45.35;95927.91;5024427;28;20194;-65
2022/10/07 01:41:10;;;;;;;10.38;7.82;;;;;;;21.83;45.37;95904.53;5026662;28;20466;-65
2022/10/07 01:43:35;;;;;;;9.07;6.95;;;;;;;22.33;45.46;95978.09;5022419;28;20038;-65
2022/10/07 01:46:01;;;;;;;9.68;7.13;;;;;;;22.31;45.19;95975.06;5032459;28;20036;-65
2022/10/07 01:48:26;;;;;;;9.23;7.10;;;;;;;22.04;45.20;95933.94;5050353;28;20502;-65
2022/10/07 01:50:53;;;;;;;8.75;6.72;;;;;;;21.83;45.12;95912.69;5030434;28;20040;-65
2022/10/07 01:53:37;;;;;;;8.73;6.90;;;;;;;22.31;45.28;95982.50;5042310;28;20099;-65
2022/10/07 01:56:12;;;;;;;8.98;7.22;;;;;;;22.29;45.33;95977.53;5032704;28;20052;-65
2022/10/07 01:58:54;;;;;;;9.50;7.22;;;;;;;22.29;45.38;95972.09;5042484;28;20044;-65
2022/10/07 02:01:43;;;;;;;10.27;6.95;;;;;;;22.14;45.43;95949.66;5040963;28;20033;-64
2022/10/07 02:04:16;;;;;;;9.35;7.13;;;;;;;22.28;45.35;95970.59;5025505;28;20045;-65
2022/10/07 02:06:48;;;;;;;9.10;6.93;;;;;;;21.92;45.44;95915.28;5010043;28;20033;-65
2022/10/07 02:09:24;;;;;;;10.55;7.68;;;;;;;22.06;45.12;95937.69;5024044;28;20133;-65
2022/10/07 02:11:53;;;;;;;8.65;6.72;;;;;;;22.28;45.38;95958.97;5029402;28;20516;-65
2022/10/07 02:14:23;;;;;;;9.90;7.05;;;;;;;21.50;45.32;95860.66;5044056;28;20099;-65
2022/10/07 02:16:50;;;;;;;9.48;6.75;;;;;;;22.16;45.23;95958.06;5025479;28;20038;-65
2022/10/07 02:19:24;;;;;;;9.45;7.00;;;;;;;22.15;45.49;95972.91;5052540;28;20483;-64
2022/10/07 02:21:51;;;;;;;8.35;6.63;;;;;;;21.51;45.10;95875.75;5058052;28;20079;-71
2022/10/07 02:24:17;;;;;;;9.00;6.80;;;;;;;21.48;45.33;95877.44;5041021;28;20043;-66
2022/10/07 02:26:43;;;;;;;8.77;6.78;;;;;;;22.10;45.15;95959.97;5023854;28;20029;-65
2022/10/07 02:29:09;;;;;;;8.88;6.43;;;;;;;22.25;45.48;95982.44;5031637;28;20083;-65
2022/10/07 02:31:34;;;;;;;9.52;6.78;;;;;;;22.25;45.19;95992.59;5041040;28;20044;-65
2022/10/07 02:34:00;;;;;;;8.75;7.10;;;;;;;22.23;45.58;95987.63;5039549;28;20051;-65
2022/10/07 02:36:30;;;;;;;8.93;7.05;;;;;;;22.24;45.29;95997.28;5055586;28;20037;-65
2022/10/07 02:38:57;;;;;;;9.50;6.95;;;;;;;22.12;45.26;95973.88;5040050;28;20029;-65
2022/10/07 02:41:43;;;;;;;8.07;6.43;;;;;;;22.23;45.29;95990.34;5025742;28;20037;-65
2022/10/07 02:44:25;;;;;;;9.88;6.93;;;;;;;22.23;45.38;95984.91;5036869;28;20037;-65
2022/10/07 02:47:03;;;;;;;9.35;6.72;;;;;;;22.23;45.20;95989.59;5036159;28;20041;-66
2022/10/07 02:49:29;;;;;;;8.65;6.95;;;;;;;22.12;45.59;95963.00;5025220;28;20114;-65
2022/10/07 02:51:58;;;;;;;10.45;7.05;;;;;;;22.21;45.40;95981.16;5051652;28;20783;-66
2022/10/07 02:54:27;;;;;;;8.03;6.60;;;;;;;22.06;45.32;95975.78;5032471;28;20550;-64
2022/10/07 02:56:53;;;;;;;8.40;6.60;;;;;;;22.04;45.10;95977.47;5048036;28;20226;-65
2022/10/07 02:59:18;;;;;;;10.25;6.95;;;;;;;22.20;45.49;95991.25;5042454;28;20033;-65
2022/10/07 03:01:45;;;;;;;10.10;6.70;;;;;;;21.41;45.30;95881.75;5035550;28;20533;-65
2022/10/07 03:04:11;;;;;;;9.02;6.68;;;;;;;22.11;45.46;95972.38;5049323;28;20041;-65
2022/10/07 03:06:36;;;;;;;9.20;6.70;;;;;;;21.28;45.08;95857.63;5023806;28;20030;-65
2022/10/07 03:09:02;;;;;;;7.97;6.97;;;;;;;22.20;45.53;95985.09;5024252;28;20044;-65
2022/10/07 03:11:28;;;;;;;7.97;6.03;;;;;;;21.90;45.45;95955.78;5039309;28;20049;-66
2022/10/07 03:13:53;;;;;;;8.25;6.63;;;;;;;22.06;45.46;95970.34;5043710;28;20047;-65
2022/10/07 03:16:19;;;;;;;9.15;6.70;;;;;;;22.06;45.56;95981.22;5027975;28;20535;-65
2022/10/07 03:18:45;;;;;;;8.50;6.47;;;;;;;21.61;45.54;95898.84;5024629;28;20630;-64
2022/10/07 03:21:10;;;;;;;7.85;6.22;;;;;;;21.79;45.49;95936.63;5023622;28;20041;-64
2022/10/07 03:23:36;;;;;;;8.27;6.63;;;;;;;21.40;45.14;95875.56;5046330;28;20132;-65
2022/10/07 03:26:02;;;;;;;8.00;6.40;;;;;;;21.33;45.52;95869.78;5035815;28;20508;-66
2022/10/07 03:28:29;;;;;;;9.48;6.88;;;;;;;22.17;45.44;95986.03;5036272;28;20102;-65
2022/10/07 03:31:01;;;;;;;9.07;6.38;;;;;;;21.69;45.37;95913.53;5046558;28;20033;-65
2022/10/07 03:33:27;;;;;;;8.20;6.13;;;;;;;21.47;45.36;95880.63;5031119;28;20070;-65
2022/10/07 03:35:52;;;;;;;10.63;7.13;;;;;;;22.14;45.45;95979.56;5027887;28;20099;-66
2022/10/07 03:38:18;;;;;;;8.15;5.82;;;;;;;21.92;45.74;95954.81;5027280;28;20049;-66
2022/10/07 03:40:43;;;;;;;9.07;6.65;;;;;;;20.63;44.84;95748.16;5027589;28;20033;-65
2022/10/07 03:43:09;;;;;;;10.27;6.70;;;;;;;21.92;45.45;95947.91;5027618;28;20500;-65
2022/10/07 03:45:36;;;;;;;8.90;6.50;;;;;;;21.58;45.15;95886.19;5050928;28;20062;-65
2022/10/07 03:48:01;;;;;;;8.15;6.40;;;;;;;21.42;45.53;95882.03;5036771;28;20041;-65
2022/10/07 03:50:27;;;;;;;9.95;6.75;;;;;;;21.79;45.40;95934.63;5027628;28;20026;-65
2022/10/07 03:52:52;;;;;;;8.20;6.47;;;;;;;20.53;45.42;95749.47;5025902;28;20033;-65
2022/10/07 03:55:18;;;;;;;9.70;6.75;;;;;;;22.13;45.62;95988.94;5033099;28;20049;-65
2022/10/07 03:57:49;;;;;;;9.35;6.72;;;;;;;21.61;45.46;95912.41;5044376;28;20017;-65
2022/10/07 04:00:16;;;;;;;9.45;6.68;;;;;;;22.12;45.28;95979.31;5043459;28;20057;-65
2022/10/07 04:02:41;;;;;;;8.38;6.60;;;;;;;21.15;45.15;95889.81;5030583;28;20132;-65
2022/10/07 04:05:07;;;;;;;8.18;6.13;;;;;;;22.13;45.29;95986.22;5036224;28;20034;-65
2022/10/07 04:07:32;;;;;;;8.68;6.28;;;;;;;21.29;45.52;95889.00;5025228;28;20052;-65
2022/10/07 04:09:58;;;;;;;8.25;6.28;;;;;;;21.39;45.23;95879.53;5026993;28;20032;-65
2022/10/07 04:12:23;;;;;;;8.38;6.30;;;;;;;22.11;45.38;95994.13;5031476;28;20044;-65
2022/10/07 04:14:49;;;;;;;8.45;6.47;;;;;;;21.75;45.50;95944.22;5037585;28;20030;-66
2022/10/07 04:17:17;;;;;;;8.65;6.70;;;;;;;20.95;45.50;95807.56;5038724;28;20097;-65
2022/10/07 04:19:43;;;;;;;8.23;6.13;;;;;;;22.19;45.37;95984.31;5044682;28;20040;-66
2022/10/07 04:22:09;;;;;;;9.20;6.40;;;;;;;21.39;46.12;95873.31;5036407;28;20136;-66
2022/10/07 04:24:34;;;;;;;8.32;6.53;;;;;;;22.12;46.02;95990.19;5036441;28;20060;-64
2022/10/07 04:27:03;;;;;;;8.60;6.03;;;;;;;21.80;45.64;95927.25;5025366;28;20453;-65
2022/10/07 04:29:29;;;;;;;8.45;6.18;;;;;;;21.70;45.82;95909.56;5025080;28;20128;-65
2022/10/07 04:31:57;;;;;;;9.57;6.35;;;;;;;21.80;46.02;95921.81;5025414;28;20037;-65
2022/10/07 04:34:23;;;;;;;9.05;6.03;;;;;;;21.69;45.68;95913.53;5030773;28;20045;-66
2022/10/07 04:36:49;;;;;;;8.82;6.65;;;;;;;22.21;46.10;95998.25;5027573;28;20033;-65
2022/10/07 04:39:14;;;;;;;8.23;6.10;;;;;;;21.50;46.09;95875.00;5034956;28;20673;-66
2022/10/07 04:41:39;;;;;;;9.48;6.70;;;;;;;21.98;46.32;95952.91;5023872;28;20054;-64
2022/10/07 04:44:05;;;;;;;8.60;6.75;;;;;;;21.53;46.23;95878.72;5026943;28;20167;-65
2022/10/07 04:46:31;;;;;;;7.32;5.72;;;;;;;22.15;46.14;95981.06;5025766;28;20056;-64
2022/10/07 04:48:56;;;;;;;7.68;6.25;;;;;;;21.18;46.45;95822.94;5026133;28;20818;-63
2022/10/07 04:51:22;;;;;;;8.25;6.05;;;;;;;21.08;46.11;95800.59;5057862;28;20048;-64
2022/10/07 04:53:51;;;;;;;8.25;5.88;;;;;;;22.05;46.20;95957.94;5027366;28;20459;-64
2022/10/07 04:56:18;;;;;;;8.48;6.50;;;;;;;21.88;46.29;95925.59;5053951;28;20063;-63
2022/10/07 04:58:43;;;;;;;8.20;6.30;;;;;;;21.82;46.06;95916.63;5028484;28;20049;-65
2022/10/07 05:01:10;;;;;;;8.18;6.00;;;;;;;21.48;46.26;95871.28;5029708;28;20033;-64
2022/10/07 05:03:37;;;;;;;7.60;5.70;;;;;;;21.99;46.17;95948.97;5029406;28;20032;-64
2022/10/07 05:06:03;;;;;;;7.60;6.00;;;;;;;22.25;46.37;95987.88;5032170;28;20060;-66
2022/10/07 05:08:28;;;;;;;7.95;5.93;;;;;;;21.59;46.10;95898.56;5031528;28;20081;-68
2022/10/07 05:10:55;;;;;;;8.50;5.63;;;;;;;22.31;46.15;95999.56;5042906;28;20084;-65
2022/10/07 05:13:22;;;;;;;7.82;6.03;;;;;;;22.21;46.45;95981.91;5022251;28;20065;-66
2022/10/07 05:16:08;;;;;;;7.32;5.28;;;;;;;22.34;46.38;96006.78;5039386;28;20029;-65
2022/10/07 05:18:34;;;;;;;8.05;5.90;;;;;;;22.35;47.26;96013.72;5026818;28;20033;-65
2022/10/07 05:21:05;;;;;;;7.75;5.18;;;;;;;22.31;47.06;95994.13;5025865;28;20622;-65
2022/10/07 05:23:31;;;;;;;8.70;5.40;;;;;;;22.24;46.92;95986.41;5029740;28;20197;-65
2022/10/07 05:25:58;;;;;;;6.65;5.03;;;;;;;22.42;46.65;96013.31;5033811;28;20367;-65
2022/10/07 05:28:23;;;;;;;8.32;5.57;;;;;;;22.43;48.14;96010.13;5056640;28;20068;-66
2022/10/07 05:30:49;;;;;;;8.90;5.00;;;;;;;22.36;48.58;95988.00;5030259;28;20460;-65
2022/10/07 05:33:15;;;;;;;7.57;4.75;;;;;;;22.43;48.68;96009.34;5045443;28;20036;-66
2022/10/07 05:35:45;;;;;;;6.35;4.57;;;;;;;22.22;48.96;95961.63;5037217;28;20058;-63
2022/10/07 05:38:10;;;;;;;7.32;4.95;;;;;;;21.67;48.29;95886.06;5027903;28;20151;-63
2022/10/07 05:40:35;;;;;;;6.22;4.88;;;;;;;21.90;49.34;95912.25;5025490;28;20037;-64
2022/10/07 05:43:01;;;;;;;6.30;5.05;;;;;;;22.35;49.22;96008.28;5025856;28;20025;-64
2022/10/07 05:45:26;;;;;;;6.60;4.65;;;;;;;22.52;48.24;96029.00;5028087;28;20026;-63
2022/10/07 05:47:52;;;;;;;5.88;4.53;;;;;;;22.15;48.39;95953.09;5026724;28;20535;-64
2022/10/07 05:50:17;;;;;;;6.88;4.60;;;;;;;21.93;47.96;95901.94;5024701;28;20387;-63
2022/10/07 05:52:44;;;;;;;6.93;4.50;;;;;;;22.65;48.24;96010.31;5026496;28;20053;-65
2022/10/07 05:55:09;;;;;;;7.25;4.72;;;;;;;22.57;48.39;95989.44;5031886;28;20041;-63
2022/10/07 05:57:35;;;;;;;6.68;4.00;;;;;;;22.83;48.16;96020.16;5026401;28;20067;-64
2022/10/07 06:00:03;;;;;;;6.55;4.55;;;;;;;22.58;47.95;95999.13;5047727;28;20431;-65
2022/10/07 06:02:28;;;;;;;7.68;4.60;;;;;;;22.79;47.97;96020.34;5065047;28;20045;-65
2022/10/07 06:04:54;;;;;;;6.75;4.88;;;;;;;22.49;47.59;95964.63;5035944;28;20045;-64
2022/10/07 06:07:19;;;;;;;7.93;4.82;;;;;;;22.87;47.50;96012.50;5029081;28;20053;-64
2022/10/07 06:15:13;;;;;;;7.07;4.72;;;;;;;23.06;46.43;96007.03;5036080;28;20872;-66
2022/10/07 06:17:42;;;;;;;6.00;4.18;;;;;;;23.13;46.60;96020.22;5033155;28;20037;-65
2022/10/07 06:20:09;;;;;;;5.80;4.38;;;;;;;22.94;45.91;95989.09;5043578;28;20466;-64
2022/10/07 06:22:34;;;;;;;5.63;4.25;;;;;;;22.25;46.21;95873.59;5031390;28;20056;-63
2022/10/07 06:25:01;;;;;;;7.18;4.50;;;;;;;23.00;46.21;95976.28;5035025;28;20339;-65
2022/10/07 06:27:27;;;;;;;5.68;3.90;;;;;;;23.28;45.84;96018.09;5029661;28;20523;-65
2022/10/07 06:29:53;;;;;;;5.65;4.38;;;;;;;22.61;45.72;95913.75;5041407;28;20029;-66
2022/10/07 06:32:18;;;;;;;6.20;3.97;;;;;;;23.52;45.63;96026.69;5032657;28;20072;-66
2022/10/07 06:34:44;;;;;;;5.80;3.83;;;;;;;23.15;45.41;95982.34;5031674;28;20507;-63
2022/10/07 06:37:09;;;;;;;4.80;3.40;;;;;;;22.77;44.83;95903.00;5027184;28;20127;-63
2022/10/07 06:39:34;;;;;;;7.00;4.32;;;;;;;23.50;44.77;96007.38;5032354;28;20076;-66
2022/10/07 06:42:00;;;;;;;5.93;4.18;;;;;;;23.21;45.12;95963.28;5029950;28;20048;-64
2022/10/07 06:44:27;;;;;;;5.65;4.20;;;;;;;22.72;44.33;95873.00;5038924;28;20045;-67
2022/10/07 06:46:52;;;;;;;5.95;4.00;;;;;;;23.58;44.66;96011.13;5031466;28;20120;-67
2022/10/07 06:49:17;;;;;;;6.03;4.10;;;;;;;23.76;44.76;96062.59;5047762;28;20114;-67
2022/10/07 06:51:43;;;;;;;6.43;4.07;;;;;;;22.67;44.48;95887.34;5040116;28;20032;-67
2022/10/07 06:54:08;;;;;;;5.53;3.67;;;;;;;23.68;44.86;96028.81;5033156;28;20041;-66
2022/10/07 06:56:34;;;;;;;6.05;3.97;;;;;;;23.47;44.39;96024.69;5035936;28;20092;-66
2022/10/07 06:59:00;;;;;;;7.32;4.25;;;;;;;22.95;44.66;95947.00;5023999;28;20038;-68
2022/10/07 07:01:26;;;;;;;5.65;3.70;;;;;;;23.60;44.41;96044.88;5037295;28;20137;-64
2022/10/07 07:03:52;;;;;;;5.07;3.63;;;;;;;23.24;44.33;95984.84;5031676;28;20451;-63
2022/10/07 07:06:18;;;;;;;5.38;3.75;;;;;;;22.99;44.05;95950.25;5024886;28;20028;-65
2022/10/07 07:08:44;;;;;;;5.55;3.78;;;;;;;23.01;44.34;95961.41;5024568;28;20037;-67
2022/10/07 07:13:56;;;;;;;5.53;3.50;;;;;;;23.50;44.39;96045.53;5036646;28;20076;-63
2022/10/07 07:16:23;;;;;;;5.50;3.25;;;;;;;22.77;44.38;95940.41;5023918;28;20136;-63
2022/10/07 07:18:52;;;;;;;5.72;3.78;;;;;;;22.66;44.23;95913.06;5024404;28;20091;-63
2022/10/07 07:21:18;;;;;;;5.03;3.58;;;;;;;23.51;44.72;96047.00;5030313;28;20522;-66
2022/10/07 07:23:43;;;;;;;5.38;3.80;;;;;;;22.86;44.76;95949.13;5031954;28;20049;-66
2022/10/07 07:26:08;;;;;;;5.38;3.80;;;;;;;22.94;44.62;95980.94;5041217;28;20041;-65
2022/10/07 07:28:34;;;;;;;6.07;3.67;;;;;;;23.42;44.28;96052.63;5041490;28;20053;-65
2022/10/07 07:30:59;;;;;;;5.32;4.00;;;;;;;22.76;44.46;95944.34;5024555;28;20034;-65
2022/10/07 07:33:25;;;;;;;6.10;3.65;;;;;;;22.28;43.96;95894.41;5027746;28;20037;-67
2022/10/07 07:35:50;;;;;;;6.63;3.58;;;;;;;22.51;44.65;95912.44;5030996;28;20481;-66
2022/10/07 07:38:16;;;;;;;6.35;3.63;;;;;;;22.78;44.33;95947.31;5040682;28;20562;-66
2022/10/07 07:40:41;;;;;;;5.25;3.50;;;;;;;22.84;44.50;95972.63;5024281;28;20033;-67
2022/10/07 07:43:07;;;;;;;5.13;3.35;;;;;;;23.14;44.38;96012.81;5033890;28;20056;-66
2022/10/07 07:45:35;;;;;;;4.78;3.60;;;;;;;22.53;44.36;95920.88;5046284;28;20018;-65
2022/10/07 07:48:01;;;;;;;5.78;4.07;;;;;;;22.50;44.38;95924.56;5030661;28;20063;-65
2022/10/07 07:50:26;;;;;;;7.72;4.00;;;;;;;23.21;43.81;96029.44;5036956;28;20132;-67
2022/10/07 07:52:53;;;;;;;9.43;5.55;;;;;;;22.42;40.15;95926.97;5040094;28;20808;-65
2022/10/07 07:55:21;;;;;;;6.13;4.20;;;;;;;22.97;41.83;96026.28;5031333;28;20106;-64
2022/10/07 07:57:47;;;;;;;7.82;4.80;;;;;;;22.29;42.52;95939.44;5038902;28;20021;-69
2022/10/07 08:00:14;;;;;;;6.22;4.10;;;;;;;22.25;42.93;95908.97;5039799;28;20049;-66
2022/10/07 08:02:40;;;;;;;6.05;3.60;;;;;;;23.02;43.44;96033.75;5038989;28;20118;-66
2022/10/07 08:05:06;;;;;;;6.22;4.25;;;;;;;22.37;43.06;95951.41;5031003;28;20044;-66
2022/10/07 08:07:34;;;;;;;6.38;4.07;;;;;;;22.37;43.00;95916.03;5024214;28;20052;-66
2022/10/07 08:09:59;;;;;;;5.85;3.90;;;;;;;22.58;42.89;95961.00;5039368;28;20822;-68
2022/10/07 08:12:25;;;;;;;6.18;3.50;;;;;;;22.18;43.10;95889.56;5040894;28;20036;-66
2022/10/07 08:14:51;;;;;;;8.05;4.35;;;;;;;22.29;42.76;95931.28;5037821;28;20053;-67
2022/10/07 08:17:16;;;;;;;8.88;4.00;;;;;;;22.98;42.64;96008.69;5032463;28;20045;-65
2022/10/07 08:19:42;;;;;;;8.05;3.78;;;;;;;22.40;42.61;95939.56;5050960;28;20065;-66
2022/10/07 08:22:07;;;;;;;6.28;3.60;;;;;;;22.60;42.47;95958.53;5034554;28;20057;-66
2022/10/07 08:24:33;;;;;;;5.68;3.58;;;;;;;22.36;42.53;95922.72;5042633;28;20391;-65
2022/10/07 08:26:58;;;;;;;5.57;3.60;;;;;;;22.36;42.72;95922.72;5028889;28;20034;-67
2022/10/07 08:29:24;;;;;;;6.47;3.40;;;;;;;22.74;42.53;95968.59;5030446;28;20079;-67
2022/10/07 08:31:49;;;;;;;5.90;3.53;;;;;;;22.18;42.15;95889.56;5026964;28;20045;-66
2022/10/07 08:34:14;;;;;;;5.20;3.33;;;;;;;22.96;41.97;95991.34;5044271;28;20086;-69
2022/10/07 08:36:42;;;;;;;6.28;3.53;;;;;;;22.35;42.35;95904.88;5029232;28;20032;-69
2022/10/07 08:39:08;;;;;;;5.55;3.40;;;;;;;22.45;41.97;95911.63;5036775;28;20076;-70
2022/10/07 08:41:41;;;;;;;5.07;3.20;;;;;;;22.96;41.82;95985.91;5036286;28;20060;-66
2022/10/07 08:44:19;;;;;;;5.38;3.58;;;;;;;22.98;42.09;95977.97;5044689;28;20041;-67
2022/10/07 08:47:15;;;;;;;6.65;2.83;;;;;;;23.01;41.13;95972.31;5034021;28;20029;-66
2022/10/07 08:49:53;;;;;;;6.03;3.63;;;;;;;22.98;41.41;95973.28;5014353;28;20084;-70
2022/10/07 08:52:44;;;;;;;6.50;3.38;;;;;;;23.00;41.48;95973.56;5033606;28;20041;-69
2022/10/07 08:55:33;;;;;;;7.50;3.47;;;;;;;22.22;41.45;95868.38;5023851;28;20103;-66
2022/10/07 08:58:25;;;;;;;5.90;3.23;;;;;;;23.12;41.62;95972.41;5041011;28;20463;-68
2022/10/07 09:00:58;;;;;;;4.13;2.90;;;;;;;23.11;41.43;95954.56;5031088;28;20057;-64
2022/10/07 09:03:50;;;;;;;4.00;2.78;;;;;;;23.20;41.43;95962.56;5043603;28;20029;-65
2022/10/07 09:06:37;;;;;;;5.10;3.30;;;;;;;23.03;41.45;95934.44;5021243;28;20056;-65
2022/10/07 09:09:10;;;;;;;4.68;2.63;;;;;;;22.51;41.16;95860.72;5035249;28;20076;-64
2022/10/07 09:11:35;;;;;;;4.93;3.15;;;;;;;23.23;41.08;95972.47;5038174;28;20097;-65
2022/10/07 09:14:07;;;;;;;5.68;2.65;;;;;;;23.02;40.96;95929.47;5055773;28;20546;-65
2022/10/07 09:16:39;;;;;;;5.57;2.53;;;;;;;23.39;40.95;95958.19;5043207;28;20045;-67
2022/10/07 09:19:04;;;;;;;4.93;2.60;;;;;;;23.46;41.01;95946.84;5039618;28;20080;-66
2022/10/07 09:21:40;;;;;;;7.50;2.92;;;;;;;23.53;40.66;95935.50;5070737;28;20099;-65
2022/10/07 09:24:14;;;;;;;5.28;2.58;;;;;;;23.11;40.35;95872.81;5037325;28;20037;-66
2022/10/07 09:26:40;;;;;;;5.18;2.53;;;;;;;22.74;40.07;95799.78;5043142;28;20303;-68
2022/10/07 09:29:07;;;;;;;3.45;2.40;;;;;;;23.17;40.50;95843.63;5038819;28;20041;-67
2022/10/07 09:31:33;;;;;;;5.57;2.75;;;;;;;23.86;40.00;95927.50;5032464;28;20049;-64
2022/10/07 09:33:59;;;;;;;6.07;2.75;;;;;;;22.95;40.57;95794.47;5028083;28;20048;-67
2022/10/07 09:36:25;;;;;;;6.03;2.78;;;;;;;23.68;40.52;95878.84;5031665;28;20029;-69
2022/10/07 09:38:53;;;;;;;5.13;2.88;;;;;;;23.89;40.58;95914.38;5043049;28;20049;-66
2022/10/07 09:41:20;;;;;;;7.68;3.22;;;;;;;23.40;40.89;95828.88;5041094;28;20152;-70
2022/10/07 09:43:48;;;;;;;5.20;2.90;;;;;;;24.22;40.29;95919.91;5032456;28;20120;-66
2022/10/07 09:46:45;;;;;;;7.10;3.58;;;;;;;24.14;40.53;95902.53;5029650;28;20103;-66
2022/10/07 09:49:26;;;;;;;5.82;3.40;;;;;;;24.45;40.74;95926.94;5009894;28;20091;-67
2022/10/07 09:52:14;;;;;;;5.50;3.40;;;;;;;24.49;40.75;95927.44;5027696;28;20983;-66
2022/10/07 09:54:40;;;;;;;5.22;2.97;;;;;;;24.14;40.40;95864.34;5044785;28;20024;-66
2022/10/07 09:57:21;;;;;;;5.32;3.00;;;;;;;24.05;40.00;95840.00;5022593;28;20041;-68
2022/10/07 09:59:46;;;;;;;4.55;2.88;;;;;;;24.46;40.40;95884.75;5042800;28;21104;-66
2022/10/07 10:02:12;;;;;;;3.58;2.60;;;;;;;24.72;40.03;95918.03;5058881;28;20069;-67
2022/10/07 10:04:38;;;;;;;4.97;2.60;;;;;;;24.54;39.95;95869.34;5032598;28;20791;-67
2022/10/07 10:07:27;;;;;;;5.00;2.22;;;;;;;24.71;39.36;95879.06;5057102;28;20088;-68
2022/10/07 10:09:58;;;;;;;5.85;2.67;;;;;;;24.27;38.53;95804.53;5054879;28;20069;-65
2022/10/07 10:12:24;;;;;;;4.43;2.45;;;;;;;24.46;38.79;95835.59;5055680;28;20033;-65
2022/10/07 10:14:54;;;;;;;4.75;1.85;;;;;;;24.92;38.46;95889.22;5036582;28;20033;-67
2022/10/07 10:17:31;;;;;;;3.40;1.90;;;;;;;24.26;37.59;95789.41;5029094;28;20033;-65
2022/10/07 10:20:19;;;;;;;2.97;2.00;;;;;;;24.97;37.78;95885.72;5025125;28;20452;-66
2022/10/07 10:22:44;;;;;;;3.10;2.00;;;;;;;24.32;37.50;95775.75;5025543;28;20052;-67
2022/10/07 10:28:02;;;;;;;5.28;2.60;;;;;;;24.99;38.08;95861.44;5036542;28;20112;-67
2022/10/07 10:30:29;;;;;;;4.60;2.22;;;;;;;25.05;37.69;95850.47;5056801;28;20033;-65
2022/10/07 10:33:31;;;;;;;4.90;2.10;;;;;;;25.20;37.88;95865.38;5028915;28;20492;-66
2022/10/07 10:36:13;;;;;;;4.30;1.95;;;;;;;25.31;38.09;95870.78;5057119;28;20069;-68
2022/10/07 10:38:52;;;;;;;3.28;1.95;;;;;;;25.21;37.46;95855.16;5037699;28;20585;-67
2022/10/07 10:41:26;;;;;;;3.00;2.10;;;;;;;25.21;37.51;95839.50;5029434;28;20049;-65
2022/10/07 10:44:20;;;;;;;2.83;1.85;;;;;;;25.45;37.72;95858.81;5017652;28;20323;-68
2022/10/07 10:47:14;;;;;;;4.03;2.05;;;;;;;24.93;37.89;95786.88;5039259;28;20049;-71
2022/10/07 10:49:42;;;;;;;4.22;2.10;;;;;;;25.62;37.50;95856.75;5037745;28;20123;-66
2022/10/07 10:52:34;;;;;;;3.70;2.45;;;;;;;25.57;37.38;95838.38;5027250;28;20045;-66
2022/10/07 10:55:29;;;;;;;3.00;1.95;;;;;;;25.67;36.95;95842.34;5042131;28;20032;-67
2022/10/07 10:57:55;;;;;;;3.63;1.80;;;;;;;25.70;37.50;95825.66;5031220;28;20069;-71
2022/10/07 11:00:21;;;;;;;3.78;2.15;;;;;;;25.56;37.42;95799.34;5037050;28;20126;-67
2022/10/07 11:02:59;;;;;;;3.60;2.20;;;;;;;25.18;37.37;95735.88;5022184;28;20045;-69
2022/10/07 11:05:36;;;;;;;2.75;2.08;;;;;;;25.55;36.87;95780.72;5063730;28;20037;-66
2022/10/07 11:08:10;;;;;;;3.80;1.80;;;;;;;25.90;37.39;95815.13;5028275;28;20153;-67
2022/10/07 11:10:58;;;;;;;2.75;2.17;;;;;;;25.94;37.40;95818.31;5024285;28;20112;-67
2022/10/07 11:13:29;;;;;;;5.15;2.10;;;;;;;25.96;37.17;95815.84;5057836;28;20049;-68
2022/10/07 11:15:56;;;;;;;2.53;1.90;;;;;;;25.98;37.34;95812.59;5035993;28;20025;-68
2022/10/07 11:18:35;;;;;;;3.35;1.90;;;;;;;26.04;37.28;95794.88;5039955;28;20068;-68
2022/10/07 11:21:02;;;;;;;3.47;1.90;;;;;;;26.04;36.91;95805.81;5035368;28;20398;-69
2022/10/07 11:23:31;;;;;;;3.00;1.90;;;;;;;26.13;37.06;95807.47;5038148;28;20155;-66
2022/10/07 11:26:21;;;;;;;2.65;1.80;;;;;;;26.14;37.03;95804.25;5040540;28;20043;-69
2022/10/07 11:28:46;;;;;;;2.38;1.73;;;;;;;25.35;36.91;95679.84;5028166;28;20475;-68
2022/10/07 11:31:26;;;;;;;2.97;1.98;;;;;;;25.40;36.46;95687.31;5022147;28;20041;-68
2022/10/07 11:34:16;;;;;;;2.95;2.03;;;;;;;26.21;36.51;95803.69;5009124;28;20028;-65
2022/10/07 11:36:53;;;;;;;3.63;1.90;;;;;;;26.20;36.73;95799.47;5054919;28;20051;-68
2022/10/07 11:39:19;;;;;;;3.53;1.90;;;;;;;26.23;36.77;95795.72;5040377;28;20041;-67
2022/10/07 11:41:52;;;;;;;3.60;1.58;;;;;;;25.95;36.46;95743.16;5056908;28;20159;-67
2022/10/07 11:44:34;;;;;;;3.05;2.10;;;;;;;26.23;36.28;95779.28;5054808;28;20033;-62
2022/10/07 11:47:01;;;;;;;3.03;1.75;;;;;;;26.25;36.62;95765.84;5042049;28;20037;-64
2022/10/07 11:49:35;;;;;;;4.18;1.80;;;;;;;26.38;36.43;95782.44;5045719;28;20152;-66
2022/10/07 11:52:23;;;;;;;2.33;1.60;;;;;;;26.42;36.07;95780.16;5042708;28;20240;-69
2022/10/07 11:54:58;;;;;;;3.22;1.70;;;;;;;26.41;35.76;95789.63;5037501;28;20071;-65